Time;durP1;ratioP1;P1;durP2;ratioP2;P2;SDS_P1;SDS_P2;PMS_P1;PMS_P2;Temp;Humidity;BMP_temperature;BMP_pressure;BME280_temperature;BME280_humidity;BME280_pressure;Samples;Min_cycle;Max_cycle;Signal;HPM_P1;HPM_P2
2023/03/15 00:02:10;;;;;;;10.00;5.90;;;;;;;3.50;69.51;99264.88;112133;1241;23030;-77
2023/03/15 00:04:41;;;;;;;8.10;5.60;;;;;;;3.48;69.61;99264.60;112216;1244;21954;-75
2023/03/15 00:07:10;;;;;;;;;;;;;;;3.47;69.61;99281.48;111813;1243;23680;-76
2023/03/15 00:09:41;;;;;;;8.00;6.10;;;;;;;3.37;69.67;99282.08;112045;1247;21975;-77
2023/03/15 00:12:14;;;;;;;11.00;5.60;;;;;;;3.37;69.73;99293.95;111824;1248;23196;-78
2023/03/15 00:14:43;;;;;;;11.10;5.30;;;;;;;3.42;69.79;99307.75;111749;1247;22712;-78
2023/03/15 00:17:14;;;;;;;11.40;6.10;;;;;;;3.49;69.78;99314.64;111999;1243;21989;-77
2023/03/15 00:19:43;;;;;;;9.50;5.50;;;;;;;3.55;69.66;99327.04;111969;1248;23018;-78
2023/03/15 00:22:16;;;;;;;14.30;6.60;;;;;;;3.61;69.65;99333.26;111684;1248;22227;-77
2023/03/15 00:24:44;;;;;;;11.30;5.50;;;;;;;3.66;69.58;99336.91;111841;1242;21981;-76
2023/03/15 00:27:16;;;;;;;9.70;6.50;;;;;;;3.69;69.36;99340.45;112455;1239;21950;-76
2023/03/15 00:29:44;;;;;;;8.60;6.50;;;;;;;3.70;69.21;99346.77;112849;1239;21930;-77
2023/03/15 00:32:13;;;;;;;10.20;5.40;;;;;;;3.71;69.04;99349.34;112155;1243;21975;-77
2023/03/15 00:34:47;;;;;;;8.30;5.40;;;;;;;3.71;68.99;99352.09;112095;1243;23670;-77
2023/03/15 00:37:18;;;;;;;7.50;4.50;;;;;;;3.69;68.96;99353.68;112015;1243;24363;-77
2023/03/15 00:39:47;;;;;;;7.80;4.50;;;;;;;3.71;69.02;99354.66;112421;1242;21967;-76
2023/03/15 00:42:16;;;;;;;9.30;4.50;;;;;;;3.71;68.88;99352.80;112270;1243;22077;-77
2023/03/15 00:44:46;;;;;;;18.00;4.60;;;;;;;3.67;68.79;99359.59;111999;1245;22715;-76
2023/03/15 00:47:16;;;;;;;12.50;5.30;;;;;;;3.68;68.80;99371.80;112358;1245;21983;-77
2023/03/15 00:49:47;;;;;;;7.90;4.20;;;;;;;3.68;68.74;99378.84;112212;1245;21954;-76
2023/03/15 00:52:21;;;;;;;11.20;4.70;;;;;;;3.71;68.80;99384.44;112006;1245;21967;-76
2023/03/15 00:54:54;;;;;;;8.50;3.80;;;;;;;3.75;68.77;99375.58;112084;1245;23832;-77
2023/03/15 00:57:33;;;;;;;11.90;4.10;;;;;;;3.74;68.67;99385.23;112161;1241;22047;-77
2023/03/15 01:00:23;;;;;;;8.50;4.00;;;;;;;3.71;68.58;99394.94;112755;1240;23150;-76
2023/03/15 01:02:55;;;;;;;11.90;5.20;;;;;;;3.70;68.48;99399.10;112753;1233;21968;-75
2023/03/15 01:05:25;;;;;;;13.30;6.00;;;;;;;3.69;68.40;99403.58;113596;1233;22299;-76
2023/03/15 01:07:56;;;;;;;10.40;4.60;;;;;;;3.70;68.33;99406.14;112303;1239;21945;-76
2023/03/15 01:10:24;;;;;;;8.40;4.30;;;;;;;3.71;68.41;99409.05;112400;1239;23578;-76
2023/03/15 01:12:55;;;;;;;11.70;4.90;;;;;;;3.69;68.31;99404.96;112457;1239;21953;-77
2023/03/15 01:15:23;;;;;;;10.20;4.40;;;;;;;3.68;68.15;99411.70;112787;1239;22020;-77
2023/03/15 01:17:55;;;;;;;11.80;5.50;;;;;;;3.69;68.05;99419.60;112558;1239;21954;-77
2023/03/15 01:20:25;;;;;;;14.60;6.40;;;;;;;3.67;67.94;99427.55;111985;1245;22171;-76
2023/03/15 01:22:54;;;;;;;15.10;5.40;;;;;;;3.65;67.97;99431.22;112193;1244;21994;-76
2023/03/15 01:25:25;;;;;;;16.30;5.80;;;;;;;3.61;67.77;99439.56;112248;1239;22123;-77
2023/03/15 01:27:53;;;;;;;9.40;5.70;;;;;;;3.60;67.84;99448.03;112800;1239;21982;-76
2023/03/15 01:30:26;;;;;;;10.40;5.60;;;;;;;3.60;67.91;99454.59;113124;1239;22053;-76
2023/03/15 01:32:57;;;;;;;10.80;5.10;;;;;;;3.59;67.83;99469.39;112798;1238;23605;-77
2023/03/15 01:35:27;;;;;;;11.20;6.10;;;;;;;3.57;67.71;99477.88;112193;1243;23580;-76
2023/03/15 01:37:56;;;;;;;15.80;7.90;;;;;;;3.56;67.88;99478.59;112583;1238;21984;-76
2023/03/15 01:40:26;;;;;;;13.30;5.70;;;;;;;3.56;67.84;99479.27;112732;1237;21967;-76
2023/03/15 01:43:05;;;;;;;14.20;6.40;;;;;;;3.55;67.79;99482.91;112971;1238;22259;-77
2023/03/15 01:46:01;;;;;;;23.10;7.20;;;;;;;3.55;67.81;99478.60;112938;1237;23005;-76
2023/03/15 01:48:44;;;;;;;12.10;6.20;;;;;;;3.53;67.74;99477.27;113217;1238;22074;-77
2023/03/15 01:51:41;;;;;;;8.30;5.10;;;;;;;3.47;67.71;99479.28;112277;1244;21916;-76
2023/03/15 01:54:14;;;;;;;15.10;5.70;;;;;;;3.42;67.69;99481.13;112109;1244;21973;-77
2023/03/15 01:56:59;;;;;;;12.50;5.90;;;;;;;3.39;67.76;99484.98;112367;1244;23787;-78
2023/03/15 01:59:48;;;;;;;13.30;5.10;;;;;;;3.33;67.78;99487.16;111868;1239;23619;-76
2023/03/15 02:02:18;;;;;;;11.50;5.50;;;;;;;3.31;67.80;99491.17;112817;1239;21958;-78
2023/03/15 02:05:08;;;;;;;9.20;5.20;;;;;;;3.27;67.71;99490.73;112834;1239;23021;-76
2023/03/15 02:07:48;;;;;;;11.70;5.70;;;;;;;3.28;67.86;99503.27;112721;1239;21952;-77
2023/03/15 02:10:29;;;;;;;11.40;5.00;;;;;;;3.28;67.86;99512.89;113203;1233;22707;-78
2023/03/15 02:13:04;;;;;;;12.10;5.40;;;;;;;3.30;67.91;99516.48;113515;1233;23597;-77
2023/03/15 02:15:36;;;;;;;9.90;5.30;;;;;;;3.33;67.87;99514.88;112494;1240;21959;-75
2023/03/15 02:18:06;;;;;;;9.40;5.40;;;;;;;3.35;67.73;99525.98;112376;1241;23762;-77
2023/03/15 02:21:33;;;;;;;10.70;4.50;;;;;;;3.36;67.63;99531.15;112440;1240;22013;-75
2023/03/15 02:24:55;;;;;;;13.80;5.80;;;;;;;3.30;67.77;99540.38;112174;1245;21964;-77
2023/03/15 02:27:34;;;;;;;7.10;4.80;;;;;;;3.27;67.76;99546.13;111653;1249;21970;-80
2023/03/15 02:30:07;;;;;;;9.90;5.20;;;;;;;3.26;67.65;99551.30;111402;1251;22145;-76
2023/03/15 02:32:35;;;;;;;15.60;5.50;;;;;;;3.25;67.59;99555.78;111424;1251;23060;-77
2023/03/15 02:35:04;;;;;;;13.80;5.10;;;;;;;3.24;67.65;99564.58;111896;1247;21984;-77
2023/03/15 02:37:33;;;;;;;14.00;5.20;;;;;;;3.23;67.79;99578.01;111771;1245;23019;-76
2023/03/15 02:40:02;;;;;;;10.40;4.90;;;;;;;3.23;67.73;99586.95;111675;1252;23626;-76
2023/03/15 02:42:31;;;;;;;11.70;4.80;;;;;;;3.22;67.82;99592.98;111352;1252;21974;-76
2023/03/15 02:45:00;;;;;;;10.80;4.50;;;;;;;3.24;67.82;99593.29;111433;1252;21958;-77
2023/03/15 02:47:32;;;;;;;10.10;3.80;;;;;;;3.24;67.64;99598.29;111325;1252;21983;-76
2023/03/15 02:50:07;;;;;;;10.30;4.70;;;;;;;3.22;67.53;99598.66;111445;1252;24308;-75
2023/03/15 02:52:38;;;;;;;10.90;4.70;;;;;;;3.20;67.65;99602.81;111194;1252;21985;-77
2023/03/15 02:55:08;;;;;;;9.80;4.80;;;;;;;3.19;67.63;99609.56;111280;1252;23047;-76
2023/03/15 02:57:37;;;;;;;19.20;4.90;;;;;;;3.18;67.66;99614.39;111291;1247;21957;-76
2023/03/15 03:00:13;;;;;;;14.30;4.50;;;;;;;3.17;67.52;99616.64;111718;1242;21977;-77
2023/03/15 03:02:53;;;;;;;14.60;4.90;;;;;;;3.14;67.44;99620.30;113075;1233;21947;-76
2023/03/15 03:05:22;;;;;;;11.00;4.40;;;;;;;3.13;67.44;99625.30;111965;1232;2058604;-77
2023/03/15 03:07:50;;;;;;;15.50;4.70;;;;;;;3.14;67.52;99627.35;112527;1239;22426;-77
2023/03/15 03:10:20;;;;;;;11.90;5.10;;;;;;;3.14;67.55;99628.91;112510;1239;21962;-77
2023/03/15 03:12:55;;;;;;;11.80;4.30;;;;;;;3.12;67.37;99629.63;112818;1240;21952;-78
2023/03/15 03:15:33;;;;;;;19.70;4.60;;;;;;;3.12;67.32;99631.70;112287;1244;21973;-77
2023/03/15 03:18:03;;;;;;;15.70;4.80;;;;;;;3.11;67.32;99638.77;112272;1244;23584;-77
2023/03/15 03:20:34;;;;;;;10.30;4.40;;;;;;;3.10;67.35;99644.80;111973;1242;23034;-76
2023/03/15 03:23:05;;;;;;;13.10;4.40;;;;;;;3.09;67.33;99648.09;111681;1249;23785;-77
2023/03/15 03:25:35;;;;;;;9.10;4.40;;;;;;;3.08;67.32;99653.27;111507;1250;21963;-77
2023/03/15 03:28:03;;;;;;;16.30;4.30;;;;;;;3.06;67.27;99654.14;111534;1250;22979;-78
2023/03/15 03:30:35;;;;;;;18.90;4.30;;;;;;;3.06;67.24;99661.20;111705;1250;21978;-78
2023/03/15 03:33:06;;;;;;;9.60;3.60;;;;;;;3.06;67.16;99666.02;111835;1241;21963;-79
2023/03/15 03:35:33;;;;;;;17.90;8.00;;;;;;;3.06;67.24;99667.73;112081;1244;22000;-79
2023/03/15 03:38:01;;;;;;;13.90;5.00;;;;;;;3.08;67.33;99675.42;112133;1244;21956;-78
2023/03/15 03:40:34;;;;;;;;;;;;;;;3.10;67.40;99684.51;112205;1239;21890;-76
2023/03/15 03:43:06;;;;;;;13.70;4.20;;;;;;;3.04;67.39;99691.83;112787;1238;23565;-77
2023/03/15 03:45:35;;;;;;;14.00;3.70;;;;;;;2.99;67.16;99702.05;112826;1239;23001;-77
2023/03/15 03:48:04;;;;;;;15.60;4.50;;;;;;;2.95;67.04;99700.94;112533;1239;21962;-77
2023/03/15 03:50:33;;;;;;;11.70;4.40;;;;;;;2.95;67.02;99698.53;112865;1232;21976;-78
2023/03/15 03:53:02;;;;;;;15.30;4.70;;;;;;;2.95;67.04;99704.19;113690;1233;21972;-78
2023/03/15 03:55:45;;;;;;;17.20;4.60;;;;;;;2.95;67.03;99704.89;112967;1239;21958;-79
2023/03/15 03:58:16;;;;;;;13.00;4.20;;;;;;;2.93;66.95;99708.02;112964;1239;23603;-78
2023/03/15 04:00:56;;;;;;;18.00;6.10;;;;;;;2.88;66.86;99711.69;113173;1239;23576;-78
2023/03/15 04:03:27;;;;;;;12.20;4.60;;;;;;;2.85;66.67;99716.91;113176;1239;22704;-77
2023/03/15 04:06:06;;;;;;;12.90;4.60;;;;;;;2.81;66.80;99724.54;112836;1239;22390;-77
2023/03/15 04:08:40;;;;;;;13.60;4.60;;;;;;;2.80;66.76;99723.52;113097;1239;21959;-77
2023/03/15 04:11:11;;;;;;;14.90;3.70;;;;;;;2.79;66.69;99717.00;113028;1239;23777;-77
2023/03/15 04:13:44;;;;;;;12.10;3.80;;;;;;;2.78;66.61;99719.95;113171;1232;22039;-77
2023/03/15 04:16:13;;;;;;;17.40;5.60;;;;;;;2.76;66.58;99725.82;113607;1232;21997;-77
2023/03/15 04:19:04;;;;;;;20.10;5.50;;;;;;;2.73;66.52;99726.04;113494;1233;21986;-76
2023/03/15 04:21:36;;;;;;;11.60;4.70;;;;;;;2.70;66.35;99733.29;113362;1232;22843;-78
2023/03/15 04:24:25;;;;;;;16.90;6.00;;;;;;;2.68;66.32;99736.94;112460;1240;23595;-77
2023/03/15 04:27:13;;;;;;;13.00;4.70;;;;;;;2.67;66.38;99738.52;112593;1241;23020;-76
2023/03/15 04:29:53;;;;;;;11.00;4.50;;;;;;;2.65;66.45;99744.04;112454;1239;21966;-76
2023/03/15 04:32:44;;;;;;;12.40;5.20;;;;;;;2.62;66.24;99745.45;112665;1241;21982;-77
2023/03/15 04:35:29;;;;;;;10.40;4.40;;;;;;;2.58;66.32;99741.73;112437;1241;23071;-76
2023/03/15 04:38:25;;;;;;;16.60;5.50;;;;;;;2.53;66.41;99743.86;112434;1241;21961;-77
2023/03/15 04:41:17;;;;;;;13.30;4.60;;;;;;;2.49;66.39;99744.08;112759;1241;23027;-77
2023/03/15 04:44:04;;;;;;;15.80;4.80;;;;;;;2.45;66.48;99745.01;112954;1239;21948;-76
2023/03/15 04:46:39;;;;;;;10.40;4.50;;;;;;;2.43;66.55;99748.98;112943;1239;21946;-76
2023/03/15 04:49:15;;;;;;;10.30;4.50;;;;;;;2.41;66.57;99750.04;112802;1239;22615;-77
2023/03/15 04:51:56;;;;;;;11.20;5.00;;;;;;;2.38;66.59;99757.13;112059;1243;21946;-76
2023/03/15 04:55:00;;;;;;;13.60;4.50;;;;;;;2.35;66.60;99755.80;112069;1243;22942;-76
2023/03/15 04:57:55;;;;;;;13.30;4.60;;;;;;;2.32;66.61;99752.91;112113;1243;22010;-76
2023/03/15 05:00:42;;;;;;;14.40;4.40;;;;;;;2.26;66.59;99753.84;112295;1243;23701;-77
2023/03/15 05:03:26;;;;;;;14.90;5.10;;;;;;;2.25;66.82;99756.61;112812;1238;21965;-77
2023/03/15 05:06:28;;;;;;;23.30;10.80;;;;;;;2.25;66.88;99759.19;112765;1238;23870;-76
2023/03/15 05:09:17;;;;;;;22.90;8.80;;;;;;;2.24;66.95;99762.63;112650;1233;21962;-76
2023/03/15 05:12:12;;;;;;;34.60;6.90;;;;;;;2.24;67.05;99767.45;113303;1233;23413;-76
2023/03/15 05:15:00;;;;;;;18.20;4.60;;;;;;;2.23;67.12;99769.52;113329;1233;23038;-76
2023/03/15 05:17:45;;;;;;;9.00;4.20;;;;;;;2.22;66.99;99772.77;113032;1239;21979;-77
2023/03/15 05:20:41;;;;;;;21.40;5.40;;;;;;;2.21;67.19;99782.77;112539;1239;22189;-76
2023/03/15 05:23:32;;;;;;;13.90;5.30;;;;;;;2.21;67.22;99796.33;112503;1239;21947;-77
2023/03/15 05:26:13;;;;;;;14.70;4.80;;;;;;;2.19;67.20;99806.65;112440;1239;21966;-78
2023/03/15 05:29:04;;;;;;;15.30;4.70;;;;;;;2.18;67.33;99813.70;112340;1244;22966;-76
2023/03/15 05:31:52;;;;;;;12.70;4.80;;;;;;;2.18;67.31;99814.38;112339;1244;22975;-77
2023/03/15 05:34:44;;;;;;;14.80;5.50;;;;;;;2.19;67.46;99818.84;112266;1244;23014;-77
2023/03/15 05:37:32;;;;;;;20.60;6.60;;;;;;;2.21;67.51;99826.88;112012;1244;21927;-77
2023/03/15 05:40:44;;;;;;;12.40;5.10;;;;;;;2.25;67.51;99827.02;111984;1244;22415;-77
2023/03/15 05:43:34;;;;;;;16.20;6.00;;;;;;;2.28;67.62;99833.67;112729;1239;21958;-78
2023/03/15 05:46:30;;;;;;;18.00;6.90;;;;;;;2.34;67.70;99837.89;113013;1232;21965;-78
2023/03/15 05:49:10;;;;;;;16.80;5.60;;;;;;;2.38;67.59;99844.55;113495;1232;23597;-77
2023/03/15 05:51:57;;;;;;;11.80;5.40;;;;;;;2.42;67.53;99852.90;113470;1233;21975;-78
2023/03/15 05:54:35;;;;;;;17.70;6.90;;;;;;;2.49;67.58;99860.02;113337;1233;23034;-78
2023/03/15 05:57:23;;;;;;;16.00;6.70;;;;;;;2.55;67.51;99863.05;113611;1233;23672;-77
2023/03/15 06:00:16;;;;;;;14.80;5.90;;;;;;;2.60;67.59;99869.50;112566;1239;22002;-80
2023/03/15 06:02:47;;;;;;;11.00;5.70;;;;;;;2.65;67.36;99873.39;112638;1239;21943;-79
2023/03/15 06:05:28;;;;;;;19.20;6.00;;;;;;;2.71;67.24;99883.28;112945;1239;21954;-80
2023/03/15 06:07:58;;;;;;;14.80;6.00;;;;;;;2.74;67.15;99884.61;113003;1239;21962;-80
2023/03/15 06:10:30;;;;;;;17.50;5.60;;;;;;;2.78;67.23;99890.23;112779;1239;24272;-80
2023/03/15 06:13:00;;;;;;;18.20;6.10;;;;;;;2.83;67.24;99892.08;112251;1245;21971;-81
2023/03/15 06:15:29;;;;;;;17.40;6.70;;;;;;;2.90;67.28;99896.43;111997;1245;23687;-82
2023/03/15 06:17:59;;;;;;;18.50;6.70;;;;;;;2.95;67.00;99901.34;112525;1239;21946;-80
2023/03/15 06:20:32;;;;;;;17.80;7.10;;;;;;;2.96;66.74;99915.08;112370;1243;23687;-78
2023/03/15 06:23:06;;;;;;;16.10;6.30;;;;;;;2.97;66.70;99922.11;112088;1243;21956;-78
2023/03/15 06:25:41;;;;;;;22.00;7.40;;;;;;;3.00;66.72;99926.38;111756;1248;22006;-78
2023/03/15 06:28:10;;;;;;;16.00;5.70;;;;;;;3.04;66.54;99927.86;111669;1248;21965;-79
2023/03/15 06:30:42;;;;;;;18.40;7.40;;;;;;;3.09;66.50;99926.94;111834;1248;21976;-77
2023/03/15 06:33:11;;;;;;;20.70;8.60;;;;;;;3.17;66.50;99927.35;111698;1248;22892;-78
2023/03/15 06:35:39;;;;;;;22.90;9.20;;;;;;;3.24;66.31;99931.73;111661;1248;21966;-77
2023/03/15 06:38:11;;;;;;;16.50;8.60;;;;;;;3.31;66.35;99931.95;111982;1239;21954;-79
2023/03/15 06:40:41;;;;;;;20.00;7.80;;;;;;;3.44;66.48;99931.75;112620;1239;21978;-79
2023/03/15 06:43:17;;;;;;;13.90;6.50;;;;;;;3.56;66.14;99936.05;112448;1233;21981;-78
2023/03/15 06:45:52;;;;;;;17.50;6.70;;;;;;;3.64;66.01;99936.27;113677;1233;22936;-79
2023/03/15 06:48:21;;;;;;;20.50;8.00;;;;;;;3.71;65.59;99938.37;113512;1233;21958;-80
2023/03/15 06:51:04;;;;;;;15.50;7.00;;;;;;;3.80;65.52;99938.59;113600;1233;22240;-80
2023/03/15 06:53:39;;;;;;;18.30;8.50;;;;;;;3.93;65.77;99937.33;113510;1233;23565;-76
2023/03/15 06:56:11;;;;;;;;;;;;;;;4.11;65.74;99940.48;113299;1232;22778;-77
2023/03/15 06:58:39;;;;;;;18.30;9.00;;;;;;;4.18;65.40;99944.31;113470;1232;21950;-78
2023/03/15 07:01:12;;;;;;;19.10;9.60;;;;;;;4.26;65.14;99946.73;113296;1232;21952;-78
2023/03/15 07:03:43;;;;;;;15.40;7.20;;;;;;;4.34;64.50;99951.42;112747;1238;21951;-78
2023/03/15 07:06:14;;;;;;;13.90;4.70;;;;;;;4.39;64.27;99957.36;112772;1239;24341;-76
2023/03/15 07:08:47;;;;;;;20.70;10.90;;;;;;;4.40;63.72;99964.58;112747;1233;21951;-76
2023/03/15 07:11:16;;;;;;;23.80;11.80;;;;;;;4.38;63.36;99967.70;112400;1239;21965;-76
2023/03/15 07:14:10;;;;;;;26.70;10.50;;;;;;;4.36;63.32;99962.91;112505;1239;22166;-75
2023/03/15 07:16:40;;;;;;;22.80;9.90;;;;;;;4.32;63.08;99961.09;112770;1233;22995;-79
2023/03/15 07:19:08;;;;;;;19.10;9.80;;;;;;;4.30;62.98;99964.92;112791;1238;21946;-77
2023/03/15 07:21:41;;;;;;;19.10;8.30;;;;;;;4.38;63.42;99965.13;113009;1232;22043;-78
2023/03/15 07:24:14;;;;;;;23.40;10.00;;;;;;;4.55;63.63;99969.45;113266;1236;21942;-78
2023/03/15 07:26:43;;;;;;;17.70;8.70;;;;;;;4.75;63.44;99974.92;113326;1236;22634;-82
2023/03/15 07:29:12;;;;;;;15.60;7.80;;;;;;;4.95;63.32;99977.63;113110;1236;21946;-85
2023/03/15 07:31:53;;;;;;;14.40;6.10;;;;;;;5.23;63.30;99984.63;113088;1236;21938;-80
2023/03/15 07:34:36;;;;;;;15.30;6.10;;;;;;;5.51;62.86;99986.27;113167;1236;21994;-80
2023/03/15 07:37:05;;;;;;;14.90;5.30;;;;;;;5.68;62.08;99990.17;113381;1237;21974;-81
2023/03/15 07:39:38;;;;;;;16.50;7.10;;;;;;;5.87;61.97;99993.87;113379;1236;21964;-83
2023/03/15 07:42:10;;;;;;;11.40;5.30;;;;;;;6.04;61.20;99993.30;113125;1229;23051;-83
2023/03/15 07:44:41;;;;;;;11.10;4.30;;;;;;;6.17;60.45;99993.17;113253;1237;21943;-84
2023/03/15 07:47:13;;;;;;;19.10;8.30;;;;;;;6.20;59.57;100004.34;113293;1236;23726;-83
2023/03/15 07:49:49;;;;;;;16.10;6.20;;;;;;;6.20;59.35;100010.54;113494;1232;21935;-84
2023/03/15 07:52:20;;;;;;;16.00;6.60;;;;;;;6.27;59.30;100011.74;113810;1232;22009;-82
2023/03/15 07:54:48;;;;;;;13.60;5.80;;;;;;;6.39;58.89;100012.48;113469;1232;21966;-82
2023/03/15 07:57:17;;;;;;;15.80;5.90;;;;;;;6.45;58.55;100014.05;114063;1232;23696;-83
2023/03/15 07:59:51;;;;;;;11.30;4.90;;;;;;;6.55;58.32;100021.04;113583;1233;23776;-82
2023/03/15 08:02:28;;;;;;;15.20;6.60;;;;;;;6.57;57.48;100030.34;113526;1233;21963;-82
2023/03/15 08:04:58;;;;;;;15.70;5.00;;;;;;;6.49;57.01;100037.47;113303;1233;21960;-82
2023/03/15 08:07:30;;;;;;;14.60;6.00;;;;;;;6.42;56.84;100042.30;113359;1233;22959;-82
2023/03/15 08:10:08;;;;;;;15.40;4.80;;;;;;;6.37;56.58;100042.26;113511;1233;21969;-82
2023/03/15 08:12:48;;;;;;;15.10;5.60;;;;;;;6.32;56.67;100045.83;113800;1233;21948;-83
2023/03/15 08:15:27;;;;;;;13.80;4.90;;;;;;;6.26;56.64;100049.27;113421;1233;22457;-81
2023/03/15 08:18:06;;;;;;;20.50;6.00;;;;;;;6.19;56.62;100055.48;113614;1233;22950;-81
2023/03/15 08:20:48;;;;;;;22.20;7.20;;;;;;;6.14;56.58;100059.40;113437;1233;24295;-80
2023/03/15 08:23:20;;;;;;;15.20;6.70;;;;;;;6.10;56.43;100064.17;113566;1233;21958;-83
2023/03/15 08:25:50;;;;;;;14.20;6.40;;;;;;;6.04;56.47;100065.70;113527;1233;21944;-83
2023/03/15 08:28:19;;;;;;;12.50;5.40;;;;;;;6.11;56.84;100065.88;113474;1232;22236;-81
2023/03/15 08:30:48;;;;;;;12.60;5.10;;;;;;;6.25;57.05;100070.56;113704;1233;23704;-81
2023/03/15 08:33:23;;;;;;;10.80;4.00;;;;;;;6.33;56.75;100072.27;112649;1241;22546;-80
2023/03/15 08:35:58;;;;;;;95.00;13.20;;;;;;;6.40;56.74;100078.30;112986;1240;22247;-77
2023/03/15 08:38:47;;;;;;;15.80;5.10;;;;;;;6.53;56.61;100090.76;112981;1241;22386;-83
2023/03/15 08:41:19;;;;;;;14.90;5.00;;;;;;;6.59;55.93;100093.20;112340;1241;23015;-76
2023/03/15 08:43:50;;;;;;;9.70;4.70;;;;;;;6.59;55.71;100095.47;112753;1239;23613;-82
2023/03/15 08:46:26;;;;;;;15.10;6.20;;;;;;;6.57;55.07;100097.77;112214;1246;22022;-83
2023/03/15 08:48:55;;;;;;;14.20;5.00;;;;;;;6.36;54.58;100097.58;111781;1246;23708;-80
2023/03/15 08:51:25;;;;;;;14.80;4.90;;;;;;;6.20;54.84;100101.42;112547;1239;21959;-85
2023/03/15 08:53:53;;;;;;;14.40;5.30;;;;;;;6.20;55.32;100106.44;113041;1238;21982;-81
2023/03/15 08:56:22;;;;;;;11.90;5.80;;;;;;;6.33;55.45;100109.91;113278;1239;21974;-82
2023/03/15 08:58:50;;;;;;;15.50;6.70;;;;;;;6.40;54.80;100111.67;113200;1239;23698;-81
2023/03/15 09:01:18;;;;;;;14.50;6.20;;;;;;;6.44;54.90;100115.20;113112;1239;21965;-81
2023/03/15 09:03:49;;;;;;;20.10;5.80;;;;;;;6.40;54.40;100119.27;113092;1232;23592;-81
2023/03/15 09:06:17;;;;;;;17.00;6.80;;;;;;;6.35;54.59;100126.84;113748;1232;21952;-81
2023/03/15 09:08:52;;;;;;;14.20;5.90;;;;;;;6.33;54.66;100132.21;113728;1233;21949;-80
2023/03/15 09:11:24;;;;;;;17.10;5.20;;;;;;;6.28;54.42;100138.38;113753;1233;23313;-82
2023/03/15 09:13:55;;;;;;;9.60;3.90;;;;;;;6.21;54.11;100141.15;113783;1233;23692;-80
2023/03/15 09:16:24;;;;;;;11.60;6.10;;;;;;;6.08;54.21;100140.23;113056;1239;23101;-80
2023/03/15 09:18:54;;;;;;;12.40;4.90;;;;;;;6.02;54.43;100141.05;113172;1237;23688;-82
2023/03/15 09:21:26;;;;;;;12.60;5.40;;;;;;;5.99;54.52;100139.23;113004;1239;23422;-81
2023/03/15 09:24:00;;;;;;;13.30;5.80;;;;;;;5.93;54.58;100146.23;112787;1239;23803;-80
2023/03/15 09:26:37;;;;;;;11.20;3.70;;;;;;;5.90;54.68;100145.62;112795;1239;21967;-80
2023/03/15 09:29:14;;;;;;;8.20;4.20;;;;;;;5.78;54.57;100143.27;112987;1239;23010;-81
2023/03/15 09:31:46;;;;;;;11.50;4.90;;;;;;;5.71;54.89;100145.83;113006;1239;21980;-80
2023/03/15 09:34:20;;;;;;;9.70;4.30;;;;;;;5.79;55.36;100142.90;112648;1231;21979;-80
2023/03/15 09:36:53;;;;;;;11.50;4.10;;;;;;;5.89;55.25;100145.63;113267;1239;22045;-82
2023/03/15 09:39:24;;;;;;;15.40;4.20;;;;;;;5.96;55.01;100146.37;112608;1239;21949;-82
2023/03/15 09:41:57;;;;;;;13.10;4.80;;;;;;;6.06;55.31;100147.02;113763;1233;23692;-81
2023/03/15 09:44:51;;;;;;;14.80;4.50;;;;;;;6.18;55.07;100144.51;113763;1233;21967;-82
2023/03/15 09:47:33;;;;;;;10.50;4.60;;;;;;;6.16;54.69;100146.61;113694;1233;22716;-81
2023/03/15 09:50:21;;;;;;;10.20;4.80;;;;;;;6.30;55.25;100144.40;113945;1233;21955;-81
2023/03/15 09:52:59;;;;;;;12.80;7.10;;;;;;;6.41;54.68;100142.23;113834;1233;21955;-81
2023/03/15 09:55:33;;;;;;;8.40;4.50;;;;;;;6.54;54.62;100142.09;113985;1229;21948;-82
2023/03/15 09:58:14;;;;;;;8.40;5.40;;;;;;;6.70;54.24;100149.47;113726;1233;21961;-79
2023/03/15 10:00:52;;;;;;;13.00;5.90;;;;;;;6.77;53.65;100148.59;113605;1233;21962;-75
2023/03/15 10:03:47;;;;;;;14.90;7.10;;;;;;;6.87;53.81;100144.90;113558;1233;21940;-79
2023/03/15 10:06:33;;;;;;;11.30;4.20;;;;;;;7.07;53.87;100147.65;113373;1224;22042;-79
2023/03/15 10:09:43;;;;;;;;;;;;;;;;;;;;;
2023/03/15 10:12:58;;;;;;;12.10;6.40;;;;;;;7.06;52.94;100138.85;112377;1243;22126;-80
2023/03/15 10:16:32;;;;;;;11.20;8.40;;;;;;;6.98;52.83;100139.41;112784;1243;21973;-83
2023/03/15 10:19:46;;;;;;;13.20;7.20;;;;;;;6.99;52.77;100143.03;112686;1243;23102;-80
2023/03/15 10:22:47;;;;;;;16.20;8.00;;;;;;;6.97;52.63;100144.11;112693;1243;21953;-81
2023/03/15 10:25:34;;;;;;;15.30;5.50;;;;;;;7.04;52.83;100142.56;112686;1243;21954;-80
2023/03/15 10:28:59;;;;;;;15.90;4.90;;;;;;;7.09;52.75;100144.15;112332;1242;21987;-79
2023/03/15 10:32:16;;;;;;;13.80;4.20;;;;;;;7.26;52.52;100140.77;112484;1243;22010;-78
2023/03/15 10:35:16;;;;;;;15.90;5.80;;;;;;;7.38;51.97;100138.52;112622;1243;22002;-79
2023/03/15 10:38:01;;;;;;;12.70;5.90;;;;;;;7.45;51.99;100137.98;112481;1243;21974;-80
2023/03/15 10:40:55;;;;;;;18.20;9.70;;;;;;;7.65;52.25;100139.98;112318;1242;21972;-81
2023/03/15 10:43:34;;;;;;;17.30;10.30;;;;;;;7.91;51.86;100139.73;112864;1240;21953;-78
2023/03/15 10:46:20;;;;;;;14.80;7.50;;;;;;;8.11;51.37;100139.30;112831;1239;23067;-77
2023/03/15 10:49:23;;;;;;;12.60;6.20;;;;;;;8.41;51.16;100137.86;112906;1239;22376;-77
2023/03/15 10:52:06;;;;;;;11.30;4.00;;;;;;;8.83;51.03;100142.74;112899;1239;21979;-78
2023/03/15 10:55:32;;;;;;;8.60;4.30;;;;;;;9.03;49.94;100141.20;111823;1246;23118;-78
2023/03/15 10:58:56;;;;;;;10.30;3.40;;;;;;;8.95;49.11;100139.73;112182;1238;23014;-79
2023/03/15 11:01:53;;;;;;;8.80;3.80;;;;;;;8.81;48.61;100141.09;111692;1246;21988;-78
2023/03/15 11:04:30;;;;;;;11.30;3.20;;;;;;;8.77;48.71;100144.14;112212;1246;21985;-79
2023/03/15 11:07:14;;;;;;;;;;;;;;;8.77;48.35;100146.25;111713;1250;21957;-79
2023/03/15 11:10:16;;;;;;;9.20;4.60;;;;;;;8.68;48.62;100144.98;111742;1251;21987;-78
2023/03/15 11:13:38;;;;;;;10.90;4.60;;;;;;;8.66;48.58;100144.00;111309;1252;22062;-79
2023/03/15 11:16:38;;;;;;;9.40;3.50;;;;;;;8.64;48.27;100145.13;111460;1254;23706;-78
2023/03/15 11:20:11;;;;;;;11.80;4.90;;;;;;;8.54;48.13;100150.47;111228;1254;22440;-79
2023/03/15 11:23:47;;;;;;;11.20;3.90;;;;;;;8.30;47.82;100151.05;111390;1254;24315;-78
2023/03/15 11:28:08;;;;;;;14.70;5.20;;;;;;;8.12;48.28;100151.43;111372;1258;21989;-79
2023/03/15 11:31:22;;;;;;;13.40;6.00;;;;;;;8.08;48.87;100155.52;111516;1246;21975;-79
2023/03/15 11:34:53;;;;;;;12.00;5.10;;;;;;;8.03;48.87;100161.04;112445;1246;21958;-80
2023/03/15 11:38:02;;;;;;;10.30;4.40;;;;;;;7.97;48.95;100164.69;112500;1246;21995;-80
2023/03/15 11:41:42;;;;;;;10.80;3.60;;;;;;;7.83;48.92;100171.15;111921;1252;23764;-81
2023/03/15 11:48:55;;;;;;;12.00;3.50;;;;;;;7.69;49.26;100179.55;111213;1260;22047;-80
2023/03/15 11:51:57;;;;;;;;;;;;;;;;;;;;;
2023/03/15 11:55:57;;;;;;;;;;;;;;;;;;;;;
2023/03/15 11:59:31;;;;;;;12.60;4.50;;;;;;;7.61;49.64;100166.26;111961;1248;21971;-80
2023/03/15 12:03:35;;;;;;;9.70;4.20;;;;;;;7.61;49.53;100160.89;111052;1261;22035;-78
2023/03/15 12:07:07;;;;;;;9.30;3.40;;;;;;;7.63;49.74;100166.71;110817;1265;21992;-81
2023/03/15 12:10:18;;;;;;;12.60;4.90;;;;;;;7.62;49.40;100169.01;110098;1265;23687;-80
2023/03/15 12:14:15;;;;;;;;;;;;;;;;;;;;;
2023/03/15 12:18:05;;;;;;;12.80;3.80;;;;;;;7.14;49.32;100167.02;109218;1276;22125;-79
2023/03/15 12:20:48;;;;;;;7.70;3.70;;;;;;;7.00;49.46;100165.31;109729;1264;21995;-80
2023/03/15 12:24:18;;;;;;;7.90;3.70;;;;;;;7.01;50.07;100165.48;110197;1260;23716;-80
2023/03/15 12:26:58;;;;;;;8.80;2.90;;;;;;;7.09;49.59;100168.55;111584;1254;22415;-83
2023/03/15 12:31:19;;;;;;;9.10;2.90;;;;;;;6.96;49.08;100164.54;111447;1254;21978;-83
2023/03/15 12:34:58;;;;;;;11.40;3.90;;;;;;;6.89;49.09;100163.70;111040;1260;21991;-79
2023/03/15 12:38:00;;;;;;;13.70;4.50;;;;;;;6.89;48.95;100165.95;111028;1260;23795;-79
2023/03/15 12:41:45;;;;;;;13.20;3.70;;;;;;;6.89;48.87;100167.34;110263;1267;21986;-81
2023/03/15 12:44:36;;;;;;;6.40;2.90;;;;;;;6.91;48.55;100171.60;109702;1270;21999;-79
2023/03/15 12:48:08;;;;;;;11.60;4.30;;;;;;;6.83;48.31;100173.01;109789;1270;21987;-80